createdAt,value
2023-12-27T00:00:17.097Z,4.50
2023-12-27T00:02:47.372Z,4.40
2023-12-27T00:05:17.849Z,4.40
2023-12-27T00:07:49.686Z,4.40
2023-12-27T00:10:20.004Z,4.40
2023-12-27T00:12:50.247Z,4.40
2023-12-27T00:15:20.817Z,4.40
2023-12-27T00:17:51.140Z,4.30
2023-12-27T00:20:22.417Z,4.30
2023-12-27T00:22:54.298Z,4.30
2023-12-27T00:25:24.556Z,4.30
2023-12-27T00:27:55.022Z,4.30
2023-12-27T00:30:25.602Z,4.30
2023-12-27T00:32:56.062Z,4.30
2023-12-27T00:35:26.390Z,4.40
2023-12-27T00:37:59.376Z,4.40
2023-12-27T00:40:29.852Z,4.40
2023-12-27T00:43:00.649Z,4.40
2023-12-27T00:45:31.068Z,4.40
2023-12-27T00:48:01.952Z,4.40
2023-12-27T00:50:32.625Z,4.40
2023-12-27T00:53:05.149Z,4.40
2023-12-27T00:55:35.689Z,4.40
2023-12-27T00:58:06.145Z,4.40
2023-12-27T01:00:36.556Z,4.40
2023-12-27T01:03:07.452Z,4.40
2023-12-27T01:05:38.613Z,4.40
2023-12-27T01:08:10.592Z,4.40
2023-12-27T01:10:41.028Z,4.30
2023-12-27T01:13:11.656Z,4.30
2023-12-27T01:15:42.503Z,4.30
2023-12-27T01:18:13.322Z,4.30
2023-12-27T01:20:44.100Z,4.30
2023-12-27T01:23:16.320Z,4.30
2023-12-27T01:25:46.929Z,4.30
2023-12-27T01:28:19.764Z,4.30
2023-12-27T01:30:50.560Z,4.30
2023-12-27T01:33:21.670Z,4.30
2023-12-27T01:35:52.323Z,4.30
2023-12-27T01:38:24.732Z,4.30
2023-12-27T01:40:55.712Z,4.20
2023-12-27T01:43:27.070Z,4.20
2023-12-27T01:45:58.385Z,4.20
2023-12-27T01:48:29.469Z,4.20
2023-12-27T01:51:02.878Z,4.20
2023-12-27T01:53:38.094Z,4.20
2023-12-27T01:56:10.674Z,4.20
2023-12-27T01:58:42.126Z,4.10
2023-12-27T02:01:12.849Z,4.10
2023-12-27T02:03:45.370Z,4.00
2023-12-27T02:06:16.412Z,4.00
2023-12-27T02:08:50.083Z,4.00
2023-12-27T02:11:20.933Z,4.00
2023-12-27T02:13:52.020Z,4.00
2023-12-27T02:16:24.008Z,4.00
2023-12-27T02:18:56.352Z,4.00
2023-12-27T02:21:29.332Z,4.00
2023-12-27T02:24:04.684Z,4.00
2023-12-27T02:26:37.560Z,4.00
2023-12-27T02:29:09.638Z,3.90
2023-12-27T02:31:41.078Z,3.90
2023-12-27T02:34:12.967Z,3.90
2023-12-27T02:36:44.311Z,3.90
2023-12-27T02:39:15.946Z,3.90
2023-12-27T02:41:51.957Z,4.00
2023-12-27T02:44:22.991Z,3.90
2023-12-27T02:46:55.526Z,4.00
2023-12-27T02:49:31.541Z,4.00
2023-12-27T02:52:03.238Z,4.00
2023-12-27T02:54:34.443Z,4.00
2023-12-27T02:57:08.757Z,4.00
2023-12-27T02:59:39.723Z,3.90
2023-12-27T03:02:11.125Z,3.90
2023-12-27T03:04:42.219Z,3.90
2023-12-27T03:07:13.413Z,3.90
2023-12-27T03:09:44.179Z,3.90
2023-12-27T03:12:17.576Z,3.90
2023-12-27T03:14:48.362Z,3.90
2023-12-27T03:17:18.977Z,3.90
2023-12-27T03:19:50.489Z,3.90
2023-12-27T03:22:21.981Z,3.90
2023-12-27T03:24:53.030Z,3.90
2023-12-27T03:27:25.579Z,3.90
2023-12-27T03:29:56.532Z,3.90
2023-12-27T03:32:28.870Z,3.90
2023-12-27T03:35:00.066Z,3.90
2023-12-27T03:37:30.528Z,3.90
2023-12-27T03:40:02.017Z,3.90
2023-12-27T03:42:38.431Z,3.90
2023-12-27T03:45:10.270Z,3.90
2023-12-27T03:47:44.484Z,3.90
2023-12-27T03:50:15.491Z,3.90
2023-12-27T03:52:47.493Z,3.90
2023-12-27T03:55:18.055Z,3.90
2023-12-27T03:57:50.502Z,3.90
2023-12-27T04:00:21.706Z,3.90
2023-12-27T04:02:52.313Z,3.90
2023-12-27T04:05:23.023Z,3.90
2023-12-27T04:07:55.572Z,3.90
2023-12-27T04:10:27.560Z,3.90
2023-12-27T04:12:59.782Z,3.80
2023-12-27T04:15:30.847Z,3.80
2023-12-27T04:18:02.113Z,3.80
2023-12-27T04:20:35.640Z,3.80
2023-12-27T04:23:06.611Z,3.80
2023-12-27T04:25:37.126Z,3.80
2023-12-27T04:28:10.143Z,3.80
2023-12-27T04:30:40.585Z,3.80
2023-12-27T04:33:11.282Z,3.80
2023-12-27T04:35:41.799Z,3.80
2023-12-27T04:38:15.362Z,3.80
2023-12-27T04:40:48.791Z,3.90
2023-12-27T04:43:20.822Z,3.90
2023-12-27T04:45:51.687Z,3.90
2023-12-27T04:48:22.066Z,3.90
2023-12-27T04:50:52.386Z,3.90
2023-12-27T04:53:22.659Z,3.90
2023-12-27T04:55:52.922Z,3.80
2023-12-27T04:58:24.839Z,3.80
2023-12-27T05:00:55.083Z,3.80
2023-12-27T05:03:25.529Z,3.80
2023-12-27T05:05:55.999Z,3.80
2023-12-27T05:08:26.344Z,3.80
2023-12-27T05:10:56.526Z,3.80
2023-12-27T05:13:28.731Z,3.80
2023-12-27T05:15:58.940Z,3.80
2023-12-27T05:18:29.245Z,3.80
2023-12-27T05:20:59.537Z,3.80
2023-12-27T05:23:30.003Z,3.80
2023-12-27T05:25:58.986Z,3.80
2023-12-27T05:28:30.895Z,3.80
2023-12-27T05:31:01.260Z,3.80
2023-12-27T05:33:31.987Z,3.80
2023-12-27T05:36:02.462Z,3.80
2023-12-27T05:38:32.938Z,3.80
2023-12-27T05:41:03.187Z,3.80
2023-12-27T05:43:36.892Z,3.70
2023-12-27T05:46:06.099Z,3.80
2023-12-27T05:48:36.440Z,3.80
2023-12-27T05:51:07.029Z,3.70
2023-12-27T05:53:37.434Z,3.70
2023-12-27T05:56:08.491Z,3.70
2023-12-27T05:58:40.536Z,3.70
2023-12-27T06:01:11.139Z,3.70
2023-12-27T06:03:41.438Z,3.70
2023-12-27T06:06:11.759Z,3.60
2023-12-27T06:08:42.019Z,3.60
2023-12-27T06:11:14.155Z,3.60
2023-12-27T06:13:47.828Z,3.60
2023-12-27T06:16:18.659Z,3.60
2023-12-27T06:18:48.934Z,3.50
2023-12-27T06:21:19.221Z,3.50
2023-12-27T06:23:49.576Z,3.50
2023-12-27T06:26:19.850Z,3.50
2023-12-27T06:28:51.801Z,3.50
2023-12-27T06:31:22.754Z,3.50
2023-12-27T06:33:53.899Z,3.50
2023-12-27T06:36:24.334Z,3.50
2023-12-27T06:38:54.547Z,3.50
2023-12-27T06:41:25.010Z,3.60
2023-12-27T06:43:59.368Z,3.60
2023-12-27T06:46:29.764Z,3.60
2023-12-27T06:49:00.040Z,3.70
2023-12-27T06:51:30.482Z,3.60
2023-12-27T06:54:00.880Z,3.70
2023-12-27T06:56:31.193Z,3.70
2023-12-27T06:59:03.134Z,3.70
2023-12-27T07:01:33.518Z,3.70
2023-12-27T07:04:04.460Z,3.70
2023-12-27T07:06:34.764Z,3.70
2023-12-27T07:09:06.310Z,3.70
2023-12-27T07:11:36.582Z,3.70
2023-12-27T07:14:08.757Z,3.70
2023-12-27T07:16:39.200Z,3.70
2023-12-27T07:19:09.980Z,3.70
2023-12-27T07:21:40.313Z,3.70
2023-12-27T07:24:10.770Z,3.70
2023-12-27T07:26:41.240Z,3.70
2023-12-27T07:29:13.101Z,3.70
2023-12-27T07:31:43.458Z,3.70
2023-12-27T07:34:13.836Z,3.70
2023-12-27T07:36:45.087Z,3.70
2023-12-27T07:39:17.564Z,3.70
2023-12-27T07:41:48.050Z,3.70
2023-12-27T07:44:19.898Z,3.60
2023-12-27T07:46:50.153Z,3.60
2023-12-27T07:49:23.256Z,3.60
2023-12-27T07:51:53.527Z,3.60
2023-12-27T07:54:23.778Z,3.60
2023-12-27T07:56:54.577Z,3.60
2023-12-27T07:59:27.060Z,3.60
2023-12-27T08:01:57.344Z,3.60
2023-12-27T08:04:27.694Z,3.60
2023-12-27T08:06:58.100Z,3.60
2023-12-27T08:09:29.017Z,3.60
2023-12-27T08:11:59.912Z,3.60
2023-12-27T08:14:31.790Z,3.60
2023-12-27T08:17:02.093Z,3.60
2023-12-27T08:19:32.356Z,3.60
2023-12-27T08:22:02.657Z,3.60
2023-12-27T08:24:33.489Z,3.50
2023-12-27T08:27:04.903Z,3.50
2023-12-27T08:29:39.250Z,3.50
2023-12-27T08:32:11.338Z,3.50
2023-12-27T08:34:41.645Z,3.50
2023-12-27T08:37:12.603Z,3.40
2023-12-27T08:39:42.952Z,3.40
2023-12-27T08:42:13.606Z,3.40
2023-12-27T08:44:45.610Z,3.40
2023-12-27T08:47:16.135Z,3.40
2023-12-27T08:49:46.740Z,3.40
2023-12-27T08:52:17.112Z,3.40
2023-12-27T08:54:47.377Z,3.40
2023-12-27T08:57:17.633Z,3.40
2023-12-27T08:59:49.546Z,3.40
2023-12-27T09:02:19.831Z,3.40
2023-12-27T09:04:50.176Z,3.40
2023-12-27T09:07:20.550Z,3.40
2023-12-27T09:09:50.955Z,3.40
2023-12-27T09:12:21.547Z,3.40
2023-12-27T09:14:53.681Z,3.40
2023-12-27T09:17:23.963Z,3.40
2023-12-27T09:19:54.245Z,3.40
2023-12-27T09:22:24.614Z,3.30
2023-12-27T09:24:54.874Z,3.40
2023-12-27T09:27:28.545Z,3.40
2023-12-27T09:30:00.826Z,3.30
2023-12-27T09:32:31.327Z,3.30
2023-12-27T09:35:02.643Z,3.40
2023-12-27T09:37:33.357Z,3.30
2023-12-27T09:40:05.390Z,3.30
2023-12-27T09:42:37.152Z,3.40
2023-12-27T09:45:12.513Z,3.40
2023-12-27T09:47:44.425Z,3.40
2023-12-27T09:50:15.337Z,3.40
2023-12-27T09:52:47.192Z,3.40
2023-12-27T09:55:17.599Z,3.40
2023-12-27T09:57:48.624Z,3.40
2023-12-27T10:00:21.602Z,3.40
2023-12-27T10:02:57.107Z,3.40
2023-12-27T10:05:36.608Z,3.30
2023-12-27T10:08:07.390Z,3.30
2023-12-27T10:10:39.293Z,3.30
2023-12-27T10:13:11.892Z,3.30
2023-12-27T10:15:43.781Z,3.30
2023-12-27T10:18:14.180Z,3.40
2023-12-27T10:20:48.213Z,3.40
2023-12-27T10:23:18.506Z,3.40
2023-12-27T10:25:48.745Z,3.40
2023-12-27T10:28:19.513Z,3.40
2023-12-27T10:30:51.405Z,3.40
2023-12-27T10:33:27.789Z,3.40
2023-12-27T10:36:00.512Z,3.40
2023-12-27T10:38:30.922Z,3.40
2023-12-27T10:41:01.187Z,3.40
2023-12-27T10:43:31.581Z,3.40
2023-12-27T10:46:10.090Z,3.40
2023-12-27T10:48:43.491Z,3.40
2023-12-27T10:51:14.338Z,3.30
2023-12-27T10:53:50.402Z,3.30
2023-12-27T10:56:23.124Z,3.30
2023-12-27T10:58:55.406Z,3.30
2023-12-27T11:01:28.854Z,3.30
2023-12-27T11:04:01.308Z,3.30
2023-12-27T11:06:34.511Z,3.30
2023-12-27T11:09:08.840Z,3.30
2023-12-27T11:11:40.787Z,3.30
2023-12-27T11:14:13.020Z,3.30
2023-12-27T11:16:46.055Z,3.30
2023-12-27T11:19:18.341Z,3.30
2023-12-27T11:21:49.393Z,3.30
2023-12-27T11:24:21.337Z,3.20
2023-12-27T11:27:01.184Z,3.20
2023-12-27T11:29:32.459Z,3.20
2023-12-27T11:32:04.414Z,3.20
2023-12-27T11:34:35.038Z,3.20
2023-12-27T11:37:05.310Z,3.20
2023-12-27T11:39:37.103Z,3.20
2023-12-27T11:42:09.437Z,3.20
2023-12-27T11:44:44.462Z,3.20
2023-12-27T11:47:18.883Z,3.20
2023-12-27T11:50:25.205Z,3.20
2023-12-27T11:53:03.362Z,3.20
2023-12-27T11:55:37.821Z,3.20
2023-12-27T11:58:08.045Z,3.20
2023-12-27T12:00:38.724Z,3.20
2023-12-27T12:03:18.002Z,3.20
2023-12-27T12:06:05.459Z,3.20
2023-12-27T12:08:43.833Z,3.20
2023-12-27T12:11:17.740Z,3.20
2023-12-27T12:13:49.536Z,3.20
2023-12-27T12:16:19.947Z,3.20
2023-12-27T12:18:52.420Z,3.20
2023-12-27T12:21:23.658Z,3.20
2023-12-27T12:23:53.925Z,3.20
2023-12-27T12:26:25.129Z,3.20
2023-12-27T12:29:00.486Z,3.20
2023-12-27T12:31:30.840Z,3.20
2023-12-27T12:34:02.909Z,3.20
2023-12-27T12:36:33.438Z,3.20
2023-12-27T12:39:06.207Z,3.20
2023-12-27T12:41:38.630Z,3.20
2023-12-27T12:44:11.658Z,3.20
2023-12-27T12:46:42.892Z,3.20
2023-12-27T12:49:15.899Z,3.20
2023-12-27T12:51:46.401Z,3.20
2023-12-27T12:54:16.654Z,3.20
2023-12-27T12:56:47.153Z,3.20
2023-12-27T12:59:18.248Z,3.20
2023-12-27T13:01:48.641Z,3.20
2023-12-27T13:04:20.575Z,3.20
2023-12-27T13:06:52.364Z,3.20
2023-12-27T13:09:22.627Z,3.20
2023-12-27T13:11:53.454Z,3.20
2023-12-27T13:14:23.753Z,3.20
2023-12-27T13:16:54.450Z,3.20
2023-12-27T13:19:26.506Z,3.20
2023-12-27T13:21:57.931Z,3.20
2023-12-27T13:24:28.200Z,3.20
2023-12-27T13:26:58.461Z,3.20
2023-12-27T13:29:28.707Z,3.30
2023-12-27T13:31:59.177Z,3.30
2023-12-27T13:34:31.659Z,3.30
2023-12-27T13:37:00.847Z,3.30
2023-12-27T13:39:31.289Z,3.30
2023-12-27T13:42:02.585Z,3.30
2023-12-27T13:44:33.081Z,3.30
2023-12-27T13:47:03.673Z,3.40
2023-12-27T13:49:37.641Z,3.40
2023-12-27T13:52:09.221Z,3.40
2023-12-27T13:54:39.708Z,3.40
2023-12-27T13:57:10.969Z,3.40
2023-12-27T13:59:41.456Z,3.40
2023-12-27T14:02:12.753Z,3.50
2023-12-27T14:04:44.929Z,3.40
2023-12-27T14:07:15.342Z,3.50
2023-12-27T14:09:45.738Z,3.40
2023-12-27T14:12:16.011Z,3.50
2023-12-27T14:14:46.789Z,3.40
2023-12-27T14:17:17.593Z,3.50
2023-12-27T14:19:49.579Z,3.50
2023-12-27T14:22:19.964Z,3.50
2023-12-27T14:24:50.309Z,3.60
2023-12-27T14:27:21.042Z,3.60
2023-12-27T14:29:51.372Z,3.70
2023-12-27T14:32:23.046Z,3.60
2023-12-27T14:34:55.192Z,3.70
2023-12-27T14:37:25.586Z,3.70
2023-12-27T14:39:56.594Z,3.70
2023-12-27T14:42:27.622Z,3.70
2023-12-27T14:44:58.027Z,3.70
2023-12-27T14:47:28.494Z,3.70
2023-12-27T14:50:00.599Z,3.70
2023-12-27T14:52:31.215Z,3.70
2023-12-27T14:55:01.543Z,3.70
2023-12-27T14:57:31.788Z,3.80
2023-12-27T15:00:02.203Z,3.80
2023-12-27T15:02:32.431Z,3.80
2023-12-27T15:05:04.603Z,3.90
2023-12-27T15:07:34.853Z,3.90
2023-12-27T15:10:08.417Z,4.00
2023-12-27T15:12:39.514Z,4.00
2023-12-27T15:15:10.716Z,4.10
2023-12-27T15:17:41.021Z,4.10
2023-12-27T15:20:14.500Z,4.10
2023-12-27T15:22:44.700Z,4.10
2023-12-27T15:25:15.374Z,4.10
2023-12-27T15:27:45.694Z,4.10
2023-12-27T15:30:17.374Z,4.20
2023-12-27T15:32:48.803Z,4.20
2023-12-27T15:35:22.593Z,4.10
2023-12-27T15:37:52.823Z,4.10
2023-12-27T15:40:23.083Z,4.10
2023-12-27T15:42:53.463Z,4.10
2023-12-27T15:45:23.745Z,4.10
2023-12-27T15:47:53.981Z,4.10
2023-12-27T15:50:26.293Z,4.10
2023-12-27T15:52:56.644Z,4.10
2023-12-27T15:55:26.888Z,4.20
2023-12-27T15:57:57.481Z,4.10
2023-12-27T16:00:28.047Z,4.10
2023-12-27T16:02:58.294Z,4.20
2023-12-27T16:05:30.340Z,4.20
2023-12-27T16:08:00.989Z,4.20
2023-12-27T16:10:34.306Z,4.20
2023-12-27T16:13:04.515Z,4.20
2023-12-27T16:15:35.746Z,4.30
2023-12-27T16:18:07.779Z,4.50
2023-12-27T16:20:43.458Z,4.50
2023-12-27T16:23:13.842Z,4.60
2023-12-27T16:25:44.246Z,4.60
2023-12-27T16:28:14.535Z,4.50
2023-12-27T16:30:44.858Z,4.50
2023-12-27T16:33:15.278Z,4.50
2023-12-27T16:35:47.306Z,4.50
2023-12-27T16:38:17.632Z,4.50
2023-12-27T16:40:48.397Z,4.40
2023-12-27T16:43:22.399Z,4.40
2023-12-27T16:45:53.014Z,4.30
2023-12-27T16:48:24.712Z,4.40
2023-12-27T16:50:56.712Z,4.40
2023-12-27T16:53:26.978Z,4.50
2023-12-27T16:55:57.277Z,4.60
2023-12-27T16:58:27.561Z,4.60
2023-12-27T17:00:57.823Z,4.60
2023-12-27T17:03:28.205Z,4.60
2023-12-27T17:06:00.155Z,4.70
2023-12-27T17:08:30.700Z,4.70
2023-12-27T17:11:01.160Z,4.60
2023-12-27T17:13:31.421Z,4.70
2023-12-27T17:16:01.689Z,4.60
2023-12-27T17:18:32.456Z,4.70
2023-12-27T17:21:05.382Z,4.80
2023-12-27T17:23:35.635Z,4.80
2023-12-27T17:26:10.774Z,4.90
2023-12-27T17:28:41.451Z,5.00
2023-12-27T17:31:14.847Z,5.00
2023-12-27T17:33:45.315Z,5.00
2023-12-27T17:36:17.275Z,5.10
2023-12-27T17:38:47.800Z,5.00
2023-12-27T17:41:18.208Z,5.00
2023-12-27T17:43:49.333Z,5.00
2023-12-27T17:46:19.865Z,5.00
2023-12-27T17:48:50.243Z,5.10
2023-12-27T17:51:22.255Z,5.00
2023-12-27T17:53:52.522Z,5.00
2023-12-27T17:56:22.760Z,5.00
2023-12-27T17:58:52.993Z,5.00
2023-12-27T18:01:23.340Z,5.00
2023-12-27T18:03:53.718Z,5.00
2023-12-27T18:06:25.707Z,5.00
2023-12-27T18:08:56.573Z,5.10
2023-12-27T18:11:26.879Z,5.10
2023-12-27T18:13:57.318Z,5.10
2023-12-27T18:16:29.835Z,5.10
2023-12-27T18:19:00.839Z,5.10
2023-12-27T18:21:32.798Z,5.10
2023-12-27T18:24:03.920Z,5.00
2023-12-27T18:26:39.483Z,5.00
2023-12-27T18:29:12.648Z,5.00
2023-12-27T18:31:43.512Z,5.00
2023-12-27T18:34:17.179Z,5.00
2023-12-27T18:36:52.283Z,5.00
2023-12-27T18:39:22.611Z,5.00
2023-12-27T18:41:54.107Z,5.00
2023-12-27T18:44:24.812Z,5.10
2023-12-27T18:46:55.092Z,5.10
2023-12-27T18:49:25.638Z,5.20
2023-12-27T18:51:57.711Z,5.40
2023-12-27T18:54:28.485Z,5.50
2023-12-27T18:56:58.801Z,5.50
2023-12-27T18:59:29.039Z,5.50
2023-12-27T19:01:59.620Z,5.50
2023-12-27T19:04:29.890Z,5.50
2023-12-27T19:07:02.271Z,5.50
2023-12-27T19:09:34.483Z,5.50
2023-12-27T19:12:05.182Z,5.50
2023-12-27T19:14:35.413Z,5.40
2023-12-27T19:17:06.141Z,5.50
2023-12-27T19:19:36.422Z,5.40
2023-12-27T19:22:09.646Z,5.40
2023-12-27T19:24:39.933Z,5.50
2023-12-27T19:27:10.241Z,5.50
2023-12-27T19:29:40.569Z,5.50
2023-12-27T19:32:11.957Z,5.40
2023-12-27T19:34:42.856Z,5.40
2023-12-27T19:37:14.845Z,5.40
2023-12-27T19:39:45.124Z,5.30
2023-12-27T19:42:16.176Z,5.30
2023-12-27T19:44:47.195Z,5.20
2023-12-27T19:47:17.476Z,5.20
2023-12-27T19:49:47.757Z,5.10
2023-12-27T19:52:19.669Z,5.00
2023-12-27T19:54:51.031Z,5.00
2023-12-27T19:57:21.333Z,4.90
2023-12-27T19:59:51.615Z,4.80
2023-12-27T20:02:21.863Z,4.80
2023-12-27T20:04:52.381Z,4.70
2023-12-27T20:07:24.243Z,4.70
2023-12-27T20:09:54.455Z,4.60
2023-12-27T20:12:25.428Z,4.60
2023-12-27T20:14:56.709Z,4.60
2023-12-27T20:17:27.093Z,4.60
2023-12-27T20:19:57.328Z,4.60
2023-12-27T20:22:29.434Z,4.60
2023-12-27T20:25:00.530Z,4.60
2023-12-27T20:27:30.843Z,4.50
2023-12-27T20:30:01.088Z,4.50
2023-12-27T20:32:34.271Z,4.50
2023-12-27T20:35:05.867Z,4.50
2023-12-27T20:37:37.869Z,4.50
2023-12-27T20:40:10.298Z,4.50
2023-12-27T20:42:40.798Z,4.40
2023-12-27T20:45:12.631Z,4.40
2023-12-27T20:47:42.960Z,4.40
2023-12-27T20:50:13.614Z,4.40
2023-12-27T20:52:45.733Z,4.40
2023-12-27T20:55:16.020Z,4.30
2023-12-27T20:57:46.356Z,4.30
2023-12-27T21:00:17.437Z,4.30
2023-12-27T21:02:47.663Z,4.30
2023-12-27T21:05:18.102Z,4.30
2023-12-27T21:07:49.973Z,4.30
2023-12-27T21:10:20.233Z,4.20
2023-12-27T21:12:50.543Z,4.20
2023-12-27T21:15:20.980Z,4.20
2023-12-27T21:17:51.573Z,4.20
2023-12-27T21:20:22.599Z,4.20
2023-12-27T21:22:54.555Z,4.20
2023-12-27T21:25:25.819Z,4.10
2023-12-27T21:27:57.693Z,4.10
2023-12-27T21:30:28.207Z,4.10
2023-12-27T21:32:58.632Z,4.10
2023-12-27T21:35:28.939Z,4.10
2023-12-27T21:38:00.869Z,4.00
2023-12-27T21:40:31.189Z,4.00
2023-12-27T21:43:01.663Z,4.00
2023-12-27T21:45:33.333Z,4.00
2023-12-27T21:48:03.856Z,4.00
2023-12-27T21:50:37.458Z,4.00
2023-12-27T21:53:09.463Z,3.90
2023-12-27T21:55:39.684Z,3.90
2023-12-27T21:58:15.656Z,4.00
2023-12-27T22:00:46.101Z,3.90
2023-12-27T22:03:16.482Z,3.90
2023-12-27T22:05:46.963Z,3.90
2023-12-27T22:08:18.882Z,3.90
2023-12-27T22:10:49.260Z,3.90
2023-12-27T22:13:19.456Z,3.90
2023-12-27T22:15:55.712Z,3.80
2023-12-27T22:18:31.114Z,3.80
2023-12-27T22:21:02.360Z,3.80
2023-12-27T22:23:34.455Z,3.80
2023-12-27T22:26:04.681Z,3.80
2023-12-27T22:28:35.323Z,3.80
2023-12-27T22:31:05.784Z,3.80
2023-12-27T22:33:36.451Z,3.70
2023-12-27T22:36:10.096Z,3.70
2023-12-27T22:38:42.015Z,3.70
2023-12-27T22:41:12.238Z,3.70
2023-12-27T22:43:42.829Z,3.70
2023-12-27T22:46:13.016Z,3.60
2023-12-27T22:48:43.409Z,3.60
2023-12-27T22:51:13.722Z,3.60
2023-12-27T22:53:45.621Z,3.60
2023-12-27T22:56:16.340Z,3.60
2023-12-27T22:58:46.804Z,3.60
2023-12-27T23:01:17.067Z,3.60
2023-12-27T23:03:47.499Z,3.50
2023-12-27T23:06:18.167Z,3.50
2023-12-27T23:08:50.058Z,3.50
2023-12-27T23:11:20.322Z,3.50
2023-12-27T23:13:50.617Z,3.50
2023-12-27T23:16:21.398Z,3.50
2023-12-27T23:18:52.197Z,3.50
2023-12-27T23:21:22.606Z,3.50
2023-12-27T23:23:55.057Z,3.40
2023-12-27T23:26:25.275Z,3.40
2023-12-27T23:28:54.252Z,3.40
2023-12-27T23:31:24.702Z,3.40
2023-12-27T23:33:55.410Z,3.40
2023-12-27T23:36:25.807Z,3.30
2023-12-27T23:38:59.437Z,3.30
2023-12-27T23:41:32.181Z,3.30
2023-12-27T23:44:03.820Z,3.30
2023-12-27T23:46:34.033Z,3.30
2023-12-27T23:49:04.923Z,3.30
2023-12-27T23:51:35.757Z,3.30
2023-12-27T23:54:08.053Z,3.30
2023-12-27T23:56:39.070Z,3.30
2023-12-27T23:59:13.459Z,3.20
